Terminal Aerodrome Forecast
Issued by NWS

Home | Current Version | Previous Version | Text Only | Print | Product List | Glossary On
Versions: 1 2 3 4 5 6 7 8 9 10 11 12 13 14 15 16 17 18 19
000
FTUS43 KDTX 282320
TAFDET
TAF
KDET 282320Z 2900/2924 19005KT P6SM SKC
     FM291400 20014G22KT P6SM BKN200
     FM291800 21018G27KT P6SM OVC150
     FM292100 22019G29KT 5SM -SHRA BKN028 OVC035=

USA.gov is the U.S. government's official web portal to all federal, state and local government web resources and services.